Anselmo, NE

2:13 PM CDT on August 30, 2016 (GMT -0500)
Broken Bow Municipal | | Change Station

Elev 2546 ft 41.44 °N, 99.64 °W | Updated 20 minutes ago

Overcast
Overcast
77 °F
Feels Like 77 °F
N
7
Wind Variable Wind from ESE

Today
High -- | Low -- °F
--% Chance of Precip.
Yesterday
High -- | Low -- °F
Precip. -- in
Pressure 30.18 in
Visibility 10.0 miles
Clouds Overcast 7000 ft
Dew Point 64 °F
Humidity 64%
Rainfall 0.17 in
Snow Depth Not available.
7:03 AM 8:14 PM
Waning Crescent, 3% visible
METAR KBBW 301853Z AUTO 11006KT 10SM OVC070 25/18 A3023 RMK AO2 SLP218 T02500178
Pressure 30.18 in
Visibility 10.0 miles
Clouds Overcast 7000 ft
Dew Point 64 °F
Humidity 64%
Rainfall 0.17 in
Snow Depth Not available.
7:03 AM 8:14 PM
Waning Crescent, 3% visible
METAR KBBW 301853Z AUTO 11006KT 10SM OVC070 25/18 A3023 RMK AO2 SLP218 T02500178

10-Day Weather Forecast

Almanac

Astronomy

Aug. 30, 2016 Rise Set
Actual Time
Civil Twilight
Nautical Twilight
Astronomical Twilight
Moon
Length of Visible Light
Length of Day
Tomorrow will be .
, % of the Moon is Illuminated

Today's Extremes

State Highs State Lows

Community

WunderPhotos

Upload Photos

1,935,882 photos uploaded!

WunderBlog® & News

Nearby

Air Quality

  Air Quality AQ Index Pollutant
Not available.

Snow Depth

Station Depth Elevation

Earthquake Activity

City Distance Mag. Time & Date
Minimum magnitude displayed is 2.5.

Coastal Water Temperatures

Place Temperature

Stations

Nearby Weather Stations

Station Location Temp. Windchill Dew Point Humidity Wind Precip. Elev Updated Type
                   

Watches & Warnings

There are currently no watches in effect.